Weather at Massachusetts Mutual Life Insurance Co Heliport

Public forecast

Using degrees Fahrenheit for public forecast. Weather courtesy of forecast.io.

Closest aviation weather report (METAR) to Massachusetts Mutual Life Insurance Co Heliport

Report is more than 6 hours old.

Closest report is Westover Metropolitan Airport / Westover Air Reserve Base, 4.7 nm (8.7 km) N.

2022/11/14 14:55 (retrieved 1 year ago)

KCEF 141455Z 31015G22KT 10SM FEW040 FEW250 04/M09 A3023 RMK AO2A SLP245 T00361088 50018

Closest aviation forecast (TAF) to Massachusetts Mutual Life Insurance Co Heliport

Forecast is more than 12 hours old.

Closest forecast is Westover Metropolitan Airport / Westover Air Reserve Base, 4.7 nm (8.7 km) N.

2023/02/22 18:06 (retrieved 1 year ago)

TAF TAF KCEF 221800Z 2218/2324 31009KT 9999 SCT060 OVC090 QNH3008INS BECMG 2221/2222 VRB06KT 8000 -SN FEW020 OVC050 620507 QNH3008INS BECMG 2223/2224 VRB06KT 3200 -SN BR FEW005 OVC010 650109 QNH3001INS BECMG 2301/2302 03009KT 2400 -FZRAPL BR OVC005 690001 660104 620903 520305 QNH2980INS BECMG 2308/2309 03009KT 4800 -FZRA BR OVC005 690001 650102 520305 QNH2980INS BECMG 2313/2314 03012KT 9999 NSW FEW008 OVC014 650143 520403 QNH2989INS BECMG 2322/2323 VRB06KT 9999 OVC008 650083 520403 QNH2998INS TX04/2218Z TNM01/2309Z